sensor_id;sensor_type;location;lat;lon;timestamp;temperature;humidity
65472;DHT22;52068;50.710;14.492;2023-08-08T00:00:15;22.80;54.24
65472;DHT22;52068;50.710;14.492;2023-08-08T00:02:41;22.82;54.37
65472;DHT22;52068;50.710;14.492;2023-08-08T00:05:06;22.82;54.44
65472;DHT22;52068;50.710;14.492;2023-08-08T00:07:32;22.77;54.30
65472;DHT22;52068;50.710;14.492;2023-08-08T00:09:57;22.77;54.19
65472;DHT22;52068;50.710;14.492;2023-08-08T00:12:23;22.77;54.42
65472;DHT22;52068;50.710;14.492;2023-08-08T00:14:48;22.77;54.36
65472;DHT22;52068;50.710;14.492;2023-08-08T00:17:14;22.76;54.13
65472;DHT22;52068;50.710;14.492;2023-08-08T00:19:39;22.76;54.34
65472;DHT22;52068;50.710;14.492;2023-08-08T00:22:05;22.74;54.12
65472;DHT22;52068;50.710;14.492;2023-08-08T00:24:31;22.77;54.14
65472;DHT22;52068;50.710;14.492;2023-08-08T00:26:56;22.73;54.30
65472;DHT22;52068;50.710;14.492;2023-08-08T00:29:21;22.76;54.26
65472;DHT22;52068;50.710;14.492;2023-08-08T00:31:47;22.76;54.13
65472;DHT22;52068;50.710;14.492;2023-08-08T00:34:12;22.74;54.22
65472;DHT22;52068;50.710;14.492;2023-08-08T00:36:38;22.73;54.28
65472;DHT22;52068;50.710;14.492;2023-08-08T00:39:03;22.72;54.31
65472;DHT22;52068;50.710;14.492;2023-08-08T00:41:28;22.72;54.15
65472;DHT22;52068;50.710;14.492;2023-08-08T00:43:54;22.73;54.41
65472;DHT22;52068;50.710;14.492;2023-08-08T00:46:21;22.69;54.07
65472;DHT22;52068;50.710;14.492;2023-08-08T00:48:46;22.70;54.61
65472;DHT22;52068;50.710;14.492;2023-08-08T00:51:13;22.69;53.98
65472;DHT22;52068;50.710;14.492;2023-08-08T00:53:38;22.70;54.25
65472;DHT22;52068;50.710;14.492;2023-08-08T00:56:04;22.72;54.36
65472;DHT22;52068;50.710;14.492;2023-08-08T00:58:30;22.70;54.37
65472;DHT22;52068;50.710;14.492;2023-08-08T01:00:55;22.73;54.46
65472;DHT22;52068;50.710;14.492;2023-08-08T01:03:22;22.69;53.96
65472;DHT22;52068;50.710;14.492;2023-08-08T01:06:05;22.70;54.16
65472;DHT22;52068;50.710;14.492;2023-08-08T01:08:40;22.69;54.08
65472;DHT22;52068;50.710;14.492;2023-08-08T01:11:08;22.67;54.46
65472;DHT22;52068;50.710;14.492;2023-08-08T01:13:34;22.67;54.24
65472;DHT22;52068;50.710;14.492;2023-08-08T01:16:02;22.67;54.19
65472;DHT22;52068;50.710;14.492;2023-08-08T01:18:28;22.67;54.36
65472;DHT22;52068;50.710;14.492;2023-08-08T01:20:55;22.69;54.39
65472;DHT22;52068;50.710;14.492;2023-08-08T01:23:58;22.67;54.26
65472;DHT22;52068;50.710;14.492;2023-08-08T01:26:26;22.69;54.49
65472;DHT22;52068;50.710;14.492;2023-08-08T01:28:54;22.67;54.25
65472;DHT22;52068;50.710;14.492;2023-08-08T01:31:20;22.66;54.41
65472;DHT22;52068;50.710;14.492;2023-08-08T01:33:46;22.69;54.61
65472;DHT22;52068;50.710;14.492;2023-08-08T01:36:20;22.70;54.73
65472;DHT22;52068;50.710;14.492;2023-08-08T01:38:47;22.72;54.48
65472;DHT22;52068;50.710;14.492;2023-08-08T01:41:14;22.72;54.52
65472;DHT22;52068;50.710;14.492;2023-08-08T01:43:41;22.70;54.81
65472;DHT22;52068;50.710;14.492;2023-08-08T01:46:07;22.72;54.46
65472;DHT22;52068;50.710;14.492;2023-08-08T01:48:33;22.70;54.55
65472;DHT22;52068;50.710;14.492;2023-08-08T01:50:58;22.70;54.50
65472;DHT22;52068;50.710;14.492;2023-08-08T01:53:24;22.70;54.54
65472;DHT22;52068;50.710;14.492;2023-08-08T01:55:49;22.70;54.50
65472;DHT22;52068;50.710;14.492;2023-08-08T01:58:14;22.69;54.70
65472;DHT22;52068;50.710;14.492;2023-08-08T02:00:40;22.72;54.81
65472;DHT22;52068;50.710;14.492;2023-08-08T02:03:06;22.69;54.82
65472;DHT22;52068;50.710;14.492;2023-08-08T02:05:32;22.72;54.71
65472;DHT22;52068;50.710;14.492;2023-08-08T02:07:57;22.69;54.49
65472;DHT22;52068;50.710;14.492;2023-08-08T02:10:22;22.67;54.51
65472;DHT22;52068;50.710;14.492;2023-08-08T02:12:48;22.69;54.64
65472;DHT22;52068;50.710;14.492;2023-08-08T02:15:13;22.69;54.62
65472;DHT22;52068;50.710;14.492;2023-08-08T02:17:39;22.67;54.64
65472;DHT22;52068;50.710;14.492;2023-08-08T02:20:06;22.64;54.57
65472;DHT22;52068;50.710;14.492;2023-08-08T02:22:32;22.69;54.54
65472;DHT22;52068;50.710;14.492;2023-08-08T02:24:57;22.67;54.37
65472;DHT22;52068;50.710;14.492;2023-08-08T02:27:23;22.60;54.58
65472;DHT22;52068;50.710;14.492;2023-08-08T02:29:48;22.62;54.20
65472;DHT22;52068;50.710;14.492;2023-08-08T02:32:13;22.59;54.40
65472;DHT22;52068;50.710;14.492;2023-08-08T02:34:39;22.59;54.54
65472;DHT22;52068;50.710;14.492;2023-08-08T02:37:04;22.55;54.54
65472;DHT22;52068;50.710;14.492;2023-08-08T02:39:30;22.56;54.47
65472;DHT22;52068;50.710;14.492;2023-08-08T02:41:55;22.53;54.80
65472;DHT22;52068;50.710;14.492;2023-08-08T02:44:20;22.53;54.56
65472;DHT22;52068;50.710;14.492;2023-08-08T02:46:47;22.51;54.54
65472;DHT22;52068;50.710;14.492;2023-08-08T02:49:13;22.55;54.56
65472;DHT22;52068;50.710;14.492;2023-08-08T02:51:38;22.52;54.67
65472;DHT22;52068;50.710;14.492;2023-08-08T02:54:03;22.49;54.66
65472;DHT22;52068;50.710;14.492;2023-08-08T02:56:29;22.49;54.57
65472;DHT22;52068;50.710;14.492;2023-08-08T02:58:54;22.48;54.51
65472;DHT22;52068;50.710;14.492;2023-08-08T03:01:19;22.49;54.52
65472;DHT22;52068;50.710;14.492;2023-08-08T03:03:45;22.46;54.46
65472;DHT22;52068;50.710;14.492;2023-08-08T03:06:10;22.46;54.67
65472;DHT22;52068;50.710;14.492;2023-08-08T03:08:35;22.45;54.57
65472;DHT22;52068;50.710;14.492;2023-08-08T03:11:01;22.45;54.63
65472;DHT22;52068;50.710;14.492;2023-08-08T03:13:27;22.45;54.44
65472;DHT22;52068;50.710;14.492;2023-08-08T03:15:52;22.46;54.72
65472;DHT22;52068;50.710;14.492;2023-08-08T03:18:17;22.43;54.62
65472;DHT22;52068;50.710;14.492;2023-08-08T03:20:43;22.45;54.63
65472;DHT22;52068;50.710;14.492;2023-08-08T03:23:08;22.43;54.76
65472;DHT22;52068;50.710;14.492;2023-08-08T03:25:33;22.42;54.70
65472;DHT22;52068;50.710;14.492;2023-08-08T03:27:59;22.43;55.05
65472;DHT22;52068;50.710;14.492;2023-08-08T03:30:24;22.45;54.89
65472;DHT22;52068;50.710;14.492;2023-08-08T03:32:49;22.42;54.85
65472;DHT22;52068;50.710;14.492;2023-08-08T03:35:15;22.42;54.63
65472;DHT22;52068;50.710;14.492;2023-08-08T03:37:41;22.41;54.67
65472;DHT22;52068;50.710;14.492;2023-08-08T03:40:07;22.39;54.75
65472;DHT22;52068;50.710;14.492;2023-08-08T03:42:33;22.39;54.96
65472;DHT22;52068;50.710;14.492;2023-08-08T03:44:58;22.41;54.97
65472;DHT22;52068;50.710;14.492;2023-08-08T03:47:24;22.41;55.01
65472;DHT22;52068;50.710;14.492;2023-08-08T03:49:50;22.38;54.69
65472;DHT22;52068;50.710;14.492;2023-08-08T03:52:16;22.36;54.85
65472;DHT22;52068;50.710;14.492;2023-08-08T03:54:42;22.38;55.08
65472;DHT22;52068;50.710;14.492;2023-08-08T03:57:07;22.38;55.21
65472;DHT22;52068;50.710;14.492;2023-08-08T03:59:33;22.38;55.22
65472;DHT22;52068;50.710;14.492;2023-08-08T04:01:58;22.36;55.29
65472;DHT22;52068;50.710;14.492;2023-08-08T04:04:24;22.38;55.27
65472;DHT22;52068;50.710;14.492;2023-08-08T04:06:49;22.38;55.14
65472;DHT22;52068;50.710;14.492;2023-08-08T04:09:14;22.36;55.03
65472;DHT22;52068;50.710;14.492;2023-08-08T04:11:40;22.38;55.11
65472;DHT22;52068;50.710;14.492;2023-08-08T04:14:05;22.36;55.16
65472;DHT22;52068;50.710;14.492;2023-08-08T04:16:31;22.32;54.94
65472;DHT22;52068;50.710;14.492;2023-08-08T04:18:56;22.35;55.17
65472;DHT22;52068;50.710;14.492;2023-08-08T04:21:22;22.32;55.15
65472;DHT22;52068;50.710;14.492;2023-08-08T04:23:48;22.32;55.12
65472;DHT22;52068;50.710;14.492;2023-08-08T04:26:13;22.32;54.96
65472;DHT22;52068;50.710;14.492;2023-08-08T04:28:40;22.33;55.02
65472;DHT22;52068;50.710;14.492;2023-08-08T04:31:05;22.35;55.08
65472;DHT22;52068;50.710;14.492;2023-08-08T04:33:30;22.35;54.98
65472;DHT22;52068;50.710;14.492;2023-08-08T04:35:56;22.36;55.07
65472;DHT22;52068;50.710;14.492;2023-08-08T04:38:21;22.35;54.99
65472;DHT22;52068;50.710;14.492;2023-08-08T04:40:46;22.36;54.73
65472;DHT22;52068;50.710;14.492;2023-08-08T04:43:12;22.36;54.87
65472;DHT22;52068;50.710;14.492;2023-08-08T04:45:37;22.33;54.86
65472;DHT22;52068;50.710;14.492;2023-08-08T04:48:03;22.33;54.75
65472;DHT22;52068;50.710;14.492;2023-08-08T04:50:28;22.36;54.75
65472;DHT22;52068;50.710;14.492;2023-08-08T04:52:53;22.36;54.74
65472;DHT22;52068;50.710;14.492;2023-08-08T04:55:19;22.36;54.73
65472;DHT22;52068;50.710;14.492;2023-08-08T04:57:44;22.35;54.80
65472;DHT22;52068;50.710;14.492;2023-08-08T05:00:10;22.35;54.62
65472;DHT22;52068;50.710;14.492;2023-08-08T05:02:36;22.36;54.88
65472;DHT22;52068;50.710;14.492;2023-08-08T05:05:01;22.38;54.88
65472;DHT22;52068;50.710;14.492;2023-08-08T05:07:27;22.38;54.67
65472;DHT22;52068;50.710;14.492;2023-08-08T05:09:53;22.36;54.66
65472;DHT22;52068;50.710;14.492;2023-08-08T05:12:18;22.35;54.79
65472;DHT22;52068;50.710;14.492;2023-08-08T05:14:43;22.38;54.89
65472;DHT22;52068;50.710;14.492;2023-08-08T05:17:09;22.35;54.57
65472;DHT22;52068;50.710;14.492;2023-08-08T05:19:34;22.33;54.85
65472;DHT22;52068;50.710;14.492;2023-08-08T05:22:00;22.36;54.92
65472;DHT22;52068;50.710;14.492;2023-08-08T05:24:26;22.36;54.84
65472;DHT22;52068;50.710;14.492;2023-08-08T05:26:51;22.38;54.84
65472;DHT22;52068;50.710;14.492;2023-08-08T05:29:18;22.36;54.80
65472;DHT22;52068;50.710;14.492;2023-08-08T05:31:43;22.36;54.76
65472;DHT22;52068;50.710;14.492;2023-08-08T05:34:09;22.38;54.67
65472;DHT22;52068;50.710;14.492;2023-08-08T05:36:34;22.36;54.59
65472;DHT22;52068;50.710;14.492;2023-08-08T05:39:00;22.38;54.65
65472;DHT22;52068;50.710;14.492;2023-08-08T05:41:25;22.39;54.65
65472;DHT22;52068;50.710;14.492;2023-08-08T05:43:50;22.33;54.58
65472;DHT22;52068;50.710;14.492;2023-08-08T05:46:16;22.36;54.80
65472;DHT22;52068;50.710;14.492;2023-08-08T05:48:41;22.38;54.73
65472;DHT22;52068;50.710;14.492;2023-08-08T05:51:06;22.36;54.65
65472;DHT22;52068;50.710;14.492;2023-08-08T05:53:32;22.38;54.58
65472;DHT22;52068;50.710;14.492;2023-08-08T05:55:57;22.39;54.55
65472;DHT22;52068;50.710;14.492;2023-08-08T05:58:23;22.38;54.56
65472;DHT22;52068;50.710;14.492;2023-08-08T06:00:49;22.36;54.47
65472;DHT22;52068;50.710;14.492;2023-08-08T06:03:15;22.38;54.95
65472;DHT22;52068;50.710;14.492;2023-08-08T06:05:40;22.43;55.13
65472;DHT22;52068;50.710;14.492;2023-08-08T06:08:05;22.48;55.10
65472;DHT22;52068;50.710;14.492;2023-08-08T06:10:36;22.49;55.01
65472;DHT22;52068;50.710;14.492;2023-08-08T06:13:01;22.52;54.98
65472;DHT22;52068;50.710;14.492;2023-08-08T06:15:27;22.56;54.96
65472;DHT22;52068;50.710;14.492;2023-08-08T06:17:53;22.57;54.75
65472;DHT22;52068;50.710;14.492;2023-08-08T06:20:18;22.60;53.11
65472;DHT22;52068;50.710;14.492;2023-08-08T06:22:43;22.52;51.98
65472;DHT22;52068;50.710;14.492;2023-08-08T06:25:09;22.46;51.56
65472;DHT22;52068;50.710;14.492;2023-08-08T06:27:34;22.43;51.16
65472;DHT22;52068;50.710;14.492;2023-08-08T06:29:59;22.33;50.92
65472;DHT22;52068;50.710;14.492;2023-08-08T06:32:25;22.29;50.10
65472;DHT22;52068;50.710;14.492;2023-08-08T06:34:50;22.25;50.67
65472;DHT22;52068;50.710;14.492;2023-08-08T06:37:15;22.21;50.43
65472;DHT22;52068;50.710;14.492;2023-08-08T06:39:41;22.16;49.67
65472;DHT22;52068;50.710;14.492;2023-08-08T06:42:07;22.11;48.95
65472;DHT22;52068;50.710;14.492;2023-08-08T06:44:33;22.06;49.63
65472;DHT22;52068;50.710;14.492;2023-08-08T06:46:58;21.98;49.51
65472;DHT22;52068;50.710;14.492;2023-08-08T06:49:24;21.94;49.55
65472;DHT22;52068;50.710;14.492;2023-08-08T06:51:49;21.90;50.10
65472;DHT22;52068;50.710;14.492;2023-08-08T06:54:15;21.83;49.76
65472;DHT22;52068;50.710;14.492;2023-08-08T06:56:40;21.73;49.14
65472;DHT22;52068;50.710;14.492;2023-08-08T06:59:05;21.70;49.01
65472;DHT22;52068;50.710;14.492;2023-08-08T07:01:31;21.65;48.31
65472;DHT22;52068;50.710;14.492;2023-08-08T07:03:56;21.58;48.34
65472;DHT22;52068;50.710;14.492;2023-08-08T07:06:22;21.51;49.61
65472;DHT22;52068;50.710;14.492;2023-08-08T07:08:48;21.51;50.14
65472;DHT22;52068;50.710;14.492;2023-08-08T07:11:13;21.53;50.19
65472;DHT22;52068;50.710;14.492;2023-08-08T07:13:38;21.50;51.00
65472;DHT22;52068;50.710;14.492;2023-08-08T07:16:04;21.49;50.62
65472;DHT22;52068;50.710;14.492;2023-08-08T07:18:29;21.47;49.62
65472;DHT22;52068;50.710;14.492;2023-08-08T07:20:54;21.40;49.78
65472;DHT22;52068;50.710;14.492;2023-08-08T07:23:22;21.39;50.38
65472;DHT22;52068;50.710;14.492;2023-08-08T07:25:47;21.43;51.77
65472;DHT22;52068;50.710;14.492;2023-08-08T07:28:13;21.47;51.13
65472;DHT22;52068;50.710;14.492;2023-08-08T07:30:40;21.49;50.82
65472;DHT22;52068;50.710;14.492;2023-08-08T07:33:05;21.54;50.49
65472;DHT22;52068;50.710;14.492;2023-08-08T07:35:30;21.58;49.64
65472;DHT22;52068;50.710;14.492;2023-08-08T07:37:56;21.61;49.24
65472;DHT22;52068;50.710;14.492;2023-08-08T07:40:21;21.65;49.74
65472;DHT22;52068;50.710;14.492;2023-08-08T07:42:47;21.70;50.67
65472;DHT22;52068;50.710;14.492;2023-08-08T07:45:13;21.78;51.18
65472;DHT22;52068;50.710;14.492;2023-08-08T07:47:39;21.83;51.38
65472;DHT22;52068;50.710;14.492;2023-08-08T07:50:05;21.95;51.29
65472;DHT22;52068;50.710;14.492;2023-08-08T07:52:33;22.01;51.32
65472;DHT22;52068;50.710;14.492;2023-08-08T07:54:58;22.12;51.02
65472;DHT22;52068;50.710;14.492;2023-08-08T07:57:26;22.21;51.02
65472;DHT22;52068;50.710;14.492;2023-08-08T07:59:51;22.28;50.93
65472;DHT22;52068;50.710;14.492;2023-08-08T08:02:17;22.32;50.85
65472;DHT22;52068;50.710;14.492;2023-08-08T08:04:42;22.41;50.75
65472;DHT22;52068;50.710;14.492;2023-08-08T08:07:08;22.45;50.81
65472;DHT22;52068;50.710;14.492;2023-08-08T08:09:33;22.46;50.70
65472;DHT22;52068;50.710;14.492;2023-08-08T08:11:58;22.51;50.87
65472;DHT22;52068;50.710;14.492;2023-08-08T08:14:24;22.53;50.94
65472;DHT22;52068;50.710;14.492;2023-08-08T08:16:50;22.53;50.96
65472;DHT22;52068;50.710;14.492;2023-08-08T08:19:15;22.53;51.35
65472;DHT22;52068;50.710;14.492;2023-08-08T08:21:41;22.53;51.35
65472;DHT22;52068;50.710;14.492;2023-08-08T08:24:06;22.53;51.45
65472;DHT22;52068;50.710;14.492;2023-08-08T08:26:31;22.53;51.36
65472;DHT22;52068;50.710;14.492;2023-08-08T08:28:57;22.52;51.51
65472;DHT22;52068;50.710;14.492;2023-08-08T08:31:23;22.52;51.71
65472;DHT22;52068;50.710;14.492;2023-08-08T08:33:48;22.53;51.93
65472;DHT22;52068;50.710;14.492;2023-08-08T08:36:13;22.51;52.03
65472;DHT22;52068;50.710;14.492;2023-08-08T08:38:39;22.53;52.03
65472;DHT22;52068;50.710;14.492;2023-08-08T08:41:04;22.52;52.20
65472;DHT22;52068;50.710;14.492;2023-08-08T08:43:33;22.53;52.24
65472;DHT22;52068;50.710;14.492;2023-08-08T08:46:00;22.53;52.65
65472;DHT22;52068;50.710;14.492;2023-08-08T08:48:27;22.52;52.49
65472;DHT22;52068;50.710;14.492;2023-08-08T08:50:53;22.52;52.44
65472;DHT22;52068;50.710;14.492;2023-08-08T08:53:18;22.49;52.37
65472;DHT22;52068;50.710;14.492;2023-08-08T08:55:44;22.51;52.24
65472;DHT22;52068;50.710;14.492;2023-08-08T08:58:11;22.46;52.20
65472;DHT22;52068;50.710;14.492;2023-08-08T09:00:39;22.46;52.26
65472;DHT22;52068;50.710;14.492;2023-08-08T09:03:04;22.46;52.31
65472;DHT22;52068;50.710;14.492;2023-08-08T09:05:30;22.46;52.38
65472;DHT22;52068;50.710;14.492;2023-08-08T09:07:56;22.46;52.35
65472;DHT22;52068;50.710;14.492;2023-08-08T09:10:21;22.45;52.20
65472;DHT22;52068;50.710;14.492;2023-08-08T09:12:49;22.46;52.45
65472;DHT22;52068;50.710;14.492;2023-08-08T09:15:14;22.45;52.48
65472;DHT22;52068;50.710;14.492;2023-08-08T09:17:41;22.43;52.20
65472;DHT22;52068;50.710;14.492;2023-08-08T09:20:08;22.45;52.40
65472;DHT22;52068;50.710;14.492;2023-08-08T09:22:36;22.43;52.46
65472;DHT22;52068;50.710;14.492;2023-08-08T09:25:01;22.46;52.04
65472;DHT22;52068;50.710;14.492;2023-08-08T09:27:28;22.46;52.27
65472;DHT22;52068;50.710;14.492;2023-08-08T09:29:54;22.46;52.83
65472;DHT22;52068;50.710;14.492;2023-08-08T09:32:19;22.46;52.89
65472;DHT22;52068;50.710;14.492;2023-08-08T09:34:44;22.48;52.89
65472;DHT22;52068;50.710;14.492;2023-08-08T09:37:11;22.46;53.08
65472;DHT22;52068;50.710;14.492;2023-08-08T09:39:36;22.49;53.32
65472;DHT22;52068;50.710;14.492;2023-08-08T09:42:02;22.51;53.19
65472;DHT22;52068;50.710;14.492;2023-08-08T09:44:30;22.51;53.34
65472;DHT22;52068;50.710;14.492;2023-08-08T09:46:56;22.55;53.36
65472;DHT22;52068;50.710;14.492;2023-08-08T09:49:22;22.55;53.17
65472;DHT22;52068;50.710;14.492;2023-08-08T09:51:48;22.56;53.54
65472;DHT22;52068;50.710;14.492;2023-08-08T09:54:15;22.59;53.54
65472;DHT22;52068;50.710;14.492;2023-08-08T09:56:40;22.60;53.51
65472;DHT22;52068;50.710;14.492;2023-08-08T09:59:07;22.64;53.54
65472;DHT22;52068;50.710;14.492;2023-08-08T10:01:34;22.64;54.00
65472;DHT22;52068;50.710;14.492;2023-08-08T10:04:00;22.63;53.35
65472;DHT22;52068;50.710;14.492;2023-08-08T10:06:28;22.67;53.21
65472;DHT22;52068;50.710;14.492;2023-08-08T10:08:53;22.67;53.05
65472;DHT22;52068;50.710;14.492;2023-08-08T10:11:20;22.67;53.09
65472;DHT22;52068;50.710;14.492;2023-08-08T10:13:49;22.66;53.08
65472;DHT22;52068;50.710;14.492;2023-08-08T10:16:16;22.69;52.75
65472;DHT22;52068;50.710;14.492;2023-08-08T10:18:41;22.70;53.10
65472;DHT22;52068;50.710;14.492;2023-08-08T10:21:07;22.69;53.06
65472;DHT22;52068;50.710;14.492;2023-08-08T10:23:39;22.70;53.22
65472;DHT22;52068;50.710;14.492;2023-08-08T10:26:05;22.70;53.36
65472;DHT22;52068;50.710;14.492;2023-08-08T10:28:52;22.73;53.41
65472;DHT22;52068;50.710;14.492;2023-08-08T10:31:20;22.72;53.36
65472;DHT22;52068;50.710;14.492;2023-08-08T10:33:45;22.72;53.34
65472;DHT22;52068;50.710;14.492;2023-08-08T10:36:11;22.76;53.35
65472;DHT22;52068;50.710;14.492;2023-08-08T10:38:42;22.76;53.48
65472;DHT22;52068;50.710;14.492;2023-08-08T10:41:16;22.77;53.39
65472;DHT22;52068;50.710;14.492;2023-08-08T10:43:57;22.79;53.20
65472;DHT22;52068;50.710;14.492;2023-08-08T10:46:31;22.84;53.25
65472;DHT22;52068;50.710;14.492;2023-08-08T10:49:00;22.86;53.05
65472;DHT22;52068;50.710;14.492;2023-08-08T10:54:06;22.89;53.12
65472;DHT22;52068;50.710;14.492;2023-08-08T10:56:31;22.90;53.06
65472;DHT22;52068;50.710;14.492;2023-08-08T10:58:57;22.89;52.98
65472;DHT22;52068;50.710;14.492;2023-08-08T11:01:26;22.90;52.86
65472;DHT22;52068;50.710;14.492;2023-08-08T11:03:52;22.89;52.87
65472;DHT22;52068;50.710;14.492;2023-08-08T11:06:18;22.90;52.93
65472;DHT22;52068;50.710;14.492;2023-08-08T11:08:44;22.90;53.33
65472;DHT22;52068;50.710;14.492;2023-08-08T11:11:09;22.90;52.92
65472;DHT22;52068;50.710;14.492;2023-08-08T11:13:35;22.92;52.86
65472;DHT22;52068;50.710;14.492;2023-08-08T11:16:00;22.90;52.84
65472;DHT22;52068;50.710;14.492;2023-08-08T11:18:27;22.90;53.13
65472;DHT22;52068;50.710;14.492;2023-08-08T11:20:53;22.93;53.05
65472;DHT22;52068;50.710;14.492;2023-08-08T11:23:18;22.94;52.97
65472;DHT22;52068;50.710;14.492;2023-08-08T11:25:46;22.94;52.91
65472;DHT22;52068;50.710;14.492;2023-08-08T11:28:12;22.93;53.10
65472;DHT22;52068;50.710;14.492;2023-08-08T11:30:40;22.97;53.14
65472;DHT22;52068;50.710;14.492;2023-08-08T11:33:06;22.99;53.02
65472;DHT22;52068;50.710;14.492;2023-08-08T11:35:32;22.97;52.91
65472;DHT22;52068;50.710;14.492;2023-08-08T11:38:00;23.00;52.92
65472;DHT22;52068;50.710;14.492;2023-08-08T11:40:26;22.99;52.86
65472;DHT22;52068;50.710;14.492;2023-08-08T11:42:53;22.99;52.73
65472;DHT22;52068;50.710;14.492;2023-08-08T11:45:19;23.00;53.08
65472;DHT22;52068;50.710;14.492;2023-08-08T11:47:52;22.99;53.19
65472;DHT22;52068;50.710;14.492;2023-08-08T11:50:20;23.00;53.18
65472;DHT22;52068;50.710;14.492;2023-08-08T11:52:48;23.03;53.45
65472;DHT22;52068;50.710;14.492;2023-08-08T11:55:13;23.02;53.15
65472;DHT22;52068;50.710;14.492;2023-08-08T11:57:39;23.04;53.12
65472;DHT22;52068;50.710;14.492;2023-08-08T12:00:10;23.06;53.10
65472;DHT22;52068;50.710;14.492;2023-08-08T12:02:38;23.06;53.39
65472;DHT22;52068;50.710;14.492;2023-08-08T12:05:08;23.06;53.06
65472;DHT22;52068;50.710;14.492;2023-08-08T12:07:35;23.03;52.94
65472;DHT22;52068;50.710;14.492;2023-08-08T12:10:03;23.07;53.12
65472;DHT22;52068;50.710;14.492;2023-08-08T12:12:28;23.06;53.18
65472;DHT22;52068;50.710;14.492;2023-08-08T12:14:56;23.10;53.31
65472;DHT22;52068;50.710;14.492;2023-08-08T12:17:21;23.07;52.92
65472;DHT22;52068;50.710;14.492;2023-08-08T12:19:47;23.08;52.80
65472;DHT22;52068;50.710;14.492;2023-08-08T12:22:13;23.07;53.03
65472;DHT22;52068;50.710;14.492;2023-08-08T12:24:39;23.04;52.54
65472;DHT22;52068;50.710;14.492;2023-08-08T12:27:04;23.07;52.56
65472;DHT22;52068;50.710;14.492;2023-08-08T12:29:30;23.06;52.43
65472;DHT22;52068;50.710;14.492;2023-08-08T12:31:56;23.08;52.26
65472;DHT22;52068;50.710;14.492;2023-08-08T12:34:21;23.07;52.47
65472;DHT22;52068;50.710;14.492;2023-08-08T12:36:47;23.06;52.57
65472;DHT22;52068;50.710;14.492;2023-08-08T12:39:12;23.03;52.82
65472;DHT22;52068;50.710;14.492;2023-08-08T12:41:38;23.04;52.68
65472;DHT22;52068;50.710;14.492;2023-08-08T12:44:04;23.04;52.90
65472;DHT22;52068;50.710;14.492;2023-08-08T12:46:29;23.04;53.17
65472;DHT22;52068;50.710;14.492;2023-08-08T12:48:54;23.04;53.48
65472;DHT22;52068;50.710;14.492;2023-08-08T12:51:20;23.02;53.25
65472;DHT22;52068;50.710;14.492;2023-08-08T12:53:45;23.03;53.44
65472;DHT22;52068;50.710;14.492;2023-08-08T12:56:11;23.06;53.60
65472;DHT22;52068;50.710;14.492;2023-08-08T12:58:36;23.10;53.45
65472;DHT22;52068;50.710;14.492;2023-08-08T13:01:01;23.13;53.55
65472;DHT22;52068;50.710;14.492;2023-08-08T13:03:27;23.15;53.15
65472;DHT22;52068;50.710;14.492;2023-08-08T13:05:53;23.23;53.29
65472;DHT22;52068;50.710;14.492;2023-08-08T13:08:18;23.25;53.14
65472;DHT22;52068;50.710;14.492;2023-08-08T13:10:44;23.30;53.07
65472;DHT22;52068;50.710;14.492;2023-08-08T13:13:10;23.34;53.07
65472;DHT22;52068;50.710;14.492;2023-08-08T13:15:36;23.38;52.87
65472;DHT22;52068;50.710;14.492;2023-08-08T13:18:01;23.44;52.87
65472;DHT22;52068;50.710;14.492;2023-08-08T13:20:27;23.47;52.86
65472;DHT22;52068;50.710;14.492;2023-08-08T13:22:52;23.52;52.85
65472;DHT22;52068;50.710;14.492;2023-08-08T13:25:18;23.55;52.92
65472;DHT22;52068;50.710;14.492;2023-08-08T13:27:44;23.54;53.08
65472;DHT22;52068;50.710;14.492;2023-08-08T13:30:10;23.55;53.21
65472;DHT22;52068;50.710;14.492;2023-08-08T13:32:36;23.57;52.79
65472;DHT22;52068;50.710;14.492;2023-08-08T13:35:01;23.57;52.39
65472;DHT22;52068;50.710;14.492;2023-08-08T13:37:26;23.50;51.85
65472;DHT22;52068;50.710;14.492;2023-08-08T13:39:52;23.50;51.48
65472;DHT22;52068;50.710;14.492;2023-08-08T13:42:17;23.50;51.94
65472;DHT22;52068;50.710;14.492;2023-08-08T13:44:43;23.45;52.24
65472;DHT22;52068;50.710;14.492;2023-08-08T13:47:09;23.47;52.02
65472;DHT22;52068;50.710;14.492;2023-08-08T13:49:34;23.44;52.35
65472;DHT22;52068;50.710;14.492;2023-08-08T13:52:01;23.45;52.26
65472;DHT22;52068;50.710;14.492;2023-08-08T13:54:26;23.47;52.16
65472;DHT22;52068;50.710;14.492;2023-08-08T13:56:52;23.50;52.44
65472;DHT22;52068;50.710;14.492;2023-08-08T13:59:17;23.47;52.65
65472;DHT22;52068;50.710;14.492;2023-08-08T14:01:42;23.51;52.67
65472;DHT22;52068;50.710;14.492;2023-08-08T14:04:08;23.52;52.68
65472;DHT22;52068;50.710;14.492;2023-08-08T14:06:33;23.52;52.83
65472;DHT22;52068;50.710;14.492;2023-08-08T14:08:58;23.51;52.79
65472;DHT22;52068;50.710;14.492;2023-08-08T14:11:24;23.52;52.89
65472;DHT22;52068;50.710;14.492;2023-08-08T14:13:49;23.52;52.93
65472;DHT22;52068;50.710;14.492;2023-08-08T14:16:14;23.54;52.88
65472;DHT22;52068;50.710;14.492;2023-08-08T14:18:40;23.55;52.85
65472;DHT22;52068;50.710;14.492;2023-08-08T14:21:05;23.57;52.74
65472;DHT22;52068;50.710;14.492;2023-08-08T14:23:31;23.59;52.66
65472;DHT22;52068;50.710;14.492;2023-08-08T14:25:57;23.54;52.44
65472;DHT22;52068;50.710;14.492;2023-08-08T14:28:22;23.54;52.31
65472;DHT22;52068;50.710;14.492;2023-08-08T14:30:47;23.55;52.23
65472;DHT22;52068;50.710;14.492;2023-08-08T14:33:15;23.55;52.14
65472;DHT22;52068;50.710;14.492;2023-08-08T14:35:40;23.57;52.20
65472;DHT22;52068;50.710;14.492;2023-08-08T14:38:06;23.51;52.19
65472;DHT22;52068;50.710;14.492;2023-08-08T14:40:31;23.51;52.13
65472;DHT22;52068;50.710;14.492;2023-08-08T14:42:57;23.52;52.09
65472;DHT22;52068;50.710;14.492;2023-08-08T14:45:23;23.52;51.94
65472;DHT22;52068;50.710;14.492;2023-08-08T14:47:49;23.50;51.89
65472;DHT22;52068;50.710;14.492;2023-08-08T14:50:15;23.50;51.77
65472;DHT22;52068;50.710;14.492;2023-08-08T14:52:41;23.50;51.90
65472;DHT22;52068;50.710;14.492;2023-08-08T14:55:07;23.48;51.67
65472;DHT22;52068;50.710;14.492;2023-08-08T14:57:32;23.48;51.32
65472;DHT22;52068;50.710;14.492;2023-08-08T14:59:58;23.47;50.82
65472;DHT22;52068;50.710;14.492;2023-08-08T15:02:25;23.47;51.27
65472;DHT22;52068;50.710;14.492;2023-08-08T15:04:51;23.45;50.91
65472;DHT22;52068;50.710;14.492;2023-08-08T15:07:16;23.45;50.81
65472;DHT22;52068;50.710;14.492;2023-08-08T15:09:41;23.47;50.89